createdAt,value
2023-05-02T00:00:49.580Z,3.05
2023-05-02T00:03:29.632Z,4.47
2023-05-02T00:05:56.208Z,2.78
2023-05-02T00:08:22.685Z,2.67
2023-05-02T00:10:49.229Z,3.88
2023-05-02T00:13:15.675Z,2.50
2023-05-02T00:15:42.142Z,2.47
2023-05-02T00:18:08.730Z,2.70
2023-05-02T00:20:35.409Z,3.97
2023-05-02T00:23:01.880Z,2.83
2023-05-02T00:25:28.600Z,3.13
2023-05-02T00:27:55.444Z,4.75
2023-05-02T00:30:21.902Z,3.78
2023-05-02T00:32:48.422Z,4.15
2023-05-02T00:35:14.970Z,4.35
2023-05-02T00:37:41.450Z,3.70
2023-05-02T00:40:08.226Z,3.15
2023-05-02T00:42:36.299Z,3.05
2023-05-02T00:45:04.531Z,4.72
2023-05-02T00:47:31.075Z,3.22
2023-05-02T00:50:01.214Z,4.85
2023-05-02T00:52:28.452Z,2.90
2023-05-02T00:54:55.240Z,3.45
2023-05-02T00:57:21.774Z,4.88
2023-05-02T00:59:48.485Z,3.10
2023-05-02T01:02:20.835Z,3.25
2023-05-02T01:04:54.046Z,5.28
2023-05-02T01:07:36.991Z,5.07
2023-05-02T01:10:15.807Z,5.18
2023-05-02T01:12:43.047Z,4.35
2023-05-02T01:15:11.106Z,3.83
2023-05-02T01:17:38.288Z,4.65
2023-05-02T01:20:13.786Z,4.38
2023-05-02T01:22:43.356Z,4.68
2023-05-02T01:25:28.777Z,4.40
2023-05-02T01:28:16.485Z,3.50
2023-05-02T01:30:44.081Z,4.53
2023-05-02T01:33:11.775Z,4.72
2023-05-02T01:35:38.872Z,3.85
2023-05-02T01:38:06.052Z,4.55
2023-05-02T01:40:33.319Z,3.67
2023-05-02T01:43:01.078Z,3.95
2023-05-02T01:45:28.051Z,4.78
2023-05-02T01:47:54.913Z,5.10
2023-05-02T01:50:23.264Z,3.30
2023-05-02T01:52:52.090Z,3.75
2023-05-02T01:55:18.907Z,3.70
2023-05-02T01:57:46.566Z,3.60
2023-05-02T02:00:13.936Z,4.97
2023-05-02T02:02:42.393Z,4.28
2023-05-02T02:05:09.200Z,3.70
2023-05-02T02:07:36.481Z,4.13
2023-05-02T02:10:03.161Z,4.45
2023-05-02T02:12:41.653Z,5.32
2023-05-02T02:15:27.192Z,4.53
2023-05-02T02:18:10.297Z,5.07
2023-05-02T02:20:37.742Z,5.10
2023-05-02T02:23:06.321Z,5.00
2023-05-02T02:25:33.975Z,2.85
2023-05-02T02:28:00.929Z,5.10
2023-05-02T02:30:27.843Z,2.45
2023-05-02T02:32:54.397Z,4.03
2023-05-02T02:35:20.942Z,3.20
2023-05-02T02:38:03.045Z,3.25
2023-05-02T02:40:44.649Z,5.45
2023-05-02T02:43:23.022Z,4.07
2023-05-02T02:45:55.573Z,3.20
2023-05-02T02:48:28.104Z,4.78
2023-05-02T02:50:54.659Z,2.45
2023-05-02T02:53:26.454Z,6.40
2023-05-02T02:55:58.398Z,3.08
2023-05-02T02:58:43.865Z,3.55
2023-05-02T03:01:12.365Z,2.95
2023-05-02T03:03:39.932Z,2.55
2023-05-02T03:06:06.798Z,3.90
2023-05-02T03:08:40.445Z,3.42
2023-05-02T03:11:09.490Z,2.67
2023-05-02T03:13:36.915Z,3.38
2023-05-02T03:16:15.708Z,2.67
2023-05-02T03:18:42.624Z,3.25
2023-05-02T03:21:09.295Z,2.88
2023-05-02T03:23:36.159Z,4.90
2023-05-02T03:26:02.972Z,4.85
2023-05-02T03:28:31.037Z,3.20
2023-05-02T03:30:58.921Z,2.88
2023-05-02T03:33:25.887Z,2.92
2023-05-02T03:35:52.396Z,3.45
2023-05-02T03:38:18.949Z,2.67
2023-05-02T03:40:47.896Z,3.15
2023-05-02T03:43:14.520Z,3.55
2023-05-02T03:45:41.078Z,2.80
2023-05-02T03:48:07.895Z,4.32
2023-05-02T03:50:34.617Z,3.25
2023-05-02T03:53:01.189Z,3.08
2023-05-02T03:55:40.954Z,2.75
2023-05-02T03:58:10.499Z,3.10
2023-05-02T04:00:38.258Z,2.75
2023-05-02T04:03:07.324Z,2.15
2023-05-02T04:05:35.721Z,1.42
2023-05-02T04:08:02.975Z,2.35
2023-05-02T04:10:30.134Z,2.33
2023-05-02T04:13:01.218Z,1.63
2023-05-02T04:15:27.725Z,3.03
2023-05-02T04:17:54.308Z,1.80
2023-05-02T04:20:21.009Z,1.70
2023-05-02T04:22:50.671Z,1.75
2023-05-02T04:25:17.311Z,1.42
2023-05-02T04:27:43.844Z,1.65
2023-05-02T04:30:13.563Z,1.42
2023-05-02T04:32:43.099Z,3.15
2023-05-02T04:35:10.812Z,1.52
2023-05-02T04:37:38.153Z,1.92
2023-05-02T04:40:06.227Z,1.73
2023-05-02T04:42:32.791Z,2.47
2023-05-02T04:45:13.715Z,1.98
2023-05-02T04:47:42.589Z,1.38
2023-05-02T04:50:09.483Z,1.40
2023-05-02T04:52:35.996Z,1.85
2023-05-02T04:55:02.515Z,1.90
2023-05-02T04:57:29.010Z,3.80
2023-05-02T04:59:59.431Z,4.05
2023-05-02T05:02:26.988Z,1.30
2023-05-02T05:04:54.771Z,2.05
2023-05-02T05:07:21.570Z,3.45
2023-05-02T05:09:51.302Z,1.42
2023-05-02T05:12:20.774Z,3.55
2023-05-02T05:14:48.236Z,2.22
2023-05-02T05:17:14.901Z,2.63
2023-05-02T05:19:42.491Z,2.25
2023-05-02T05:22:09.852Z,1.40
2023-05-02T05:24:37.013Z,2.78
2023-05-02T05:27:03.520Z,4.32
2023-05-02T05:29:31.445Z,1.70
2023-05-02T05:31:58.000Z,2.60
2023-05-02T05:34:25.328Z,1.77
2023-05-02T05:36:54.903Z,2.03
2023-05-02T05:39:21.937Z,1.15
2023-05-02T05:41:51.652Z,2.83
2023-05-02T05:44:18.723Z,1.27
2023-05-02T05:46:45.249Z,1.70
2023-05-02T05:49:12.634Z,1.60
2023-05-02T05:51:41.740Z,2.28
2023-05-02T05:54:09.076Z,1.45
2023-05-02T05:56:36.164Z,1.33
2023-05-02T05:59:08.917Z,1.13
2023-05-02T06:01:35.927Z,1.60
2023-05-02T06:04:05.388Z,1.70
2023-05-02T06:06:34.488Z,1.25
2023-05-02T06:09:02.571Z,2.05
2023-05-02T06:11:29.349Z,1.25
2023-05-02T06:13:56.487Z,1.73
2023-05-02T06:16:23.332Z,2.05
2023-05-02T06:18:51.614Z,1.63
2023-05-02T06:21:18.133Z,1.40
2023-05-02T06:23:45.751Z,1.33
2023-05-02T06:26:12.257Z,1.52
2023-05-02T06:28:38.955Z,1.63
2023-05-02T06:31:05.956Z,1.10
2023-05-02T06:33:33.522Z,1.25
2023-05-02T06:36:01.729Z,1.65
2023-05-02T06:38:28.902Z,1.55
2023-05-02T06:40:55.673Z,1.40
2023-05-02T06:43:22.163Z,3.13
2023-05-02T06:45:48.636Z,1.23
2023-05-02T06:48:15.540Z,1.95
2023-05-02T06:50:42.463Z,1.80
2023-05-02T06:53:09.042Z,1.05
2023-05-02T06:55:35.604Z,0.65
2023-05-02T06:58:02.072Z,0.65
2023-05-02T07:00:28.548Z,0.80
2023-05-02T07:02:55.185Z,0.90
2023-05-02T07:05:21.753Z,0.82
2023-05-02T07:07:48.210Z,0.77
2023-05-02T07:10:14.690Z,0.93
2023-05-02T07:12:41.225Z,1.15
2023-05-02T07:15:08.290Z,0.70
2023-05-02T07:17:34.921Z,0.60
2023-05-02T07:20:01.672Z,2.17
2023-05-02T07:22:28.362Z,1.73
2023-05-02T07:24:58.645Z,1.60
2023-05-02T07:27:25.440Z,0.68
2023-05-02T07:29:51.982Z,1.15
2023-05-02T07:32:18.524Z,1.70
2023-05-02T07:34:45.284Z,1.42
2023-05-02T07:37:12.040Z,1.95
2023-05-02T07:39:38.500Z,0.82
2023-05-02T07:42:06.551Z,1.48
2023-05-02T07:44:34.960Z,1.05
2023-05-02T07:47:01.460Z,0.95
2023-05-02T07:49:28.073Z,2.13
2023-05-02T07:51:54.501Z,0.85
2023-05-02T07:54:21.937Z,1.75
2023-05-02T07:56:48.986Z,2.13
2023-05-02T07:59:15.543Z,1.35
2023-05-02T08:01:42.176Z,1.08
2023-05-02T08:04:10.833Z,1.08
2023-05-02T08:06:38.012Z,0.60
2023-05-02T08:09:04.596Z,0.77
2023-05-02T08:11:31.009Z,0.50
2023-05-02T08:13:57.447Z,0.88
2023-05-02T08:16:23.946Z,0.20
2023-05-02T08:18:50.488Z,0.75
2023-05-02T08:21:16.887Z,0.50
2023-05-02T08:23:43.392Z,0.60
2023-05-02T08:26:09.851Z,1.13
2023-05-02T08:28:36.714Z,0.73
2023-05-02T08:31:03.547Z,0.95
2023-05-02T08:33:30.184Z,0.98
2023-05-02T08:35:56.652Z,1.08
2023-05-02T08:38:23.108Z,0.82
2023-05-02T08:40:49.654Z,3.50
2023-05-02T08:43:16.613Z,1.30
2023-05-02T08:45:43.896Z,0.65
2023-05-02T08:48:13.768Z,0.73
2023-05-02T08:50:42.446Z,0.85
2023-05-02T08:53:09.653Z,0.73
2023-05-02T08:55:40.518Z,1.10
2023-05-02T08:58:07.538Z,0.57
2023-05-02T09:00:38.087Z,0.70
2023-05-02T09:03:14.612Z,0.68
2023-05-02T09:05:41.781Z,0.45
2023-05-02T09:08:08.728Z,1.05
2023-05-02T09:10:39.214Z,0.65
2023-05-02T09:13:24.446Z,0.38
2023-05-02T09:15:58.003Z,0.85
2023-05-02T09:18:25.115Z,0.80
2023-05-02T09:20:51.667Z,0.93
2023-05-02T09:23:18.163Z,1.58
2023-05-02T09:25:44.635Z,0.32
2023-05-02T09:28:11.124Z,0.38
2023-05-02T09:30:37.719Z,0.43
2023-05-02T09:33:04.330Z,0.82
2023-05-02T09:35:30.968Z,0.55
2023-05-02T09:37:57.628Z,0.88
2023-05-02T09:40:24.509Z,0.90
2023-05-02T09:42:51.267Z,0.80
2023-05-02T09:45:21.906Z,0.40
2023-05-02T09:47:48.688Z,0.80
2023-05-02T09:50:32.981Z,0.47
2023-05-02T09:53:04.119Z,0.63
2023-05-02T09:55:31.213Z,1.10
2023-05-02T09:57:57.893Z,0.30
2023-05-02T10:00:37.996Z,0.30
2023-05-02T10:03:06.518Z,0.52
2023-05-02T10:05:34.154Z,0.68
2023-05-02T10:08:00.783Z,0.70
2023-05-02T10:10:27.630Z,0.43
2023-05-02T10:12:54.653Z,0.40
2023-05-02T10:15:22.661Z,0.82
2023-05-02T10:17:50.574Z,0.60
2023-05-02T10:20:22.428Z,0.52
2023-05-02T10:22:49.861Z,0.90
2023-05-02T10:25:16.507Z,1.25
2023-05-02T10:27:43.164Z,1.02
2023-05-02T10:30:10.506Z,0.75
2023-05-02T10:32:38.007Z,0.80
2023-05-02T10:35:05.500Z,0.65
2023-05-02T10:37:36.198Z,1.08
2023-05-02T10:40:03.107Z,0.80
2023-05-02T10:42:30.301Z,0.82
2023-05-02T10:44:56.835Z,0.70
2023-05-02T10:47:26.960Z,0.73
2023-05-02T10:49:54.885Z,0.60
2023-05-02T10:52:47.755Z,0.40
2023-05-02T10:55:14.943Z,0.60
2023-05-02T10:57:59.829Z,0.85
2023-05-02T11:00:27.528Z,0.60
2023-05-02T11:02:54.277Z,0.32
2023-05-02T11:05:22.030Z,0.60
2023-05-02T11:07:48.557Z,1.50
2023-05-02T11:10:18.129Z,0.30
2023-05-02T11:12:49.244Z,0.60
2023-05-02T11:15:36.373Z,1.17
2023-05-02T11:18:04.092Z,0.68
2023-05-02T11:20:31.666Z,0.47
2023-05-02T11:22:59.604Z,0.52
2023-05-02T11:25:33.217Z,0.80
2023-05-02T11:27:59.983Z,0.68
2023-05-02T11:30:39.887Z,0.80
2023-05-02T11:33:06.356Z,0.65
2023-05-02T11:35:34.773Z,0.43
2023-05-02T11:38:04.776Z,0.50
2023-05-02T11:40:31.766Z,0.30
2023-05-02T11:42:59.138Z,0.40
2023-05-02T11:45:36.411Z,0.30
2023-05-02T11:48:04.694Z,0.55
2023-05-02T11:50:31.463Z,0.32
2023-05-02T11:52:58.575Z,0.57
2023-05-02T11:55:25.179Z,0.40
2023-05-02T11:57:51.682Z,0.60
2023-05-02T12:00:18.506Z,0.85
2023-05-02T12:02:46.082Z,0.90
2023-05-02T12:05:13.710Z,0.60
2023-05-02T12:07:47.212Z,0.98
2023-05-02T12:10:14.391Z,0.52
2023-05-02T12:12:41.611Z,0.70
2023-05-02T12:15:09.289Z,0.50
2023-05-02T12:17:41.024Z,0.50
2023-05-02T12:20:08.929Z,0.60
2023-05-02T12:22:35.958Z,0.68
2023-05-02T12:25:04.431Z,0.82
2023-05-02T12:27:33.206Z,0.80
2023-05-02T12:29:59.964Z,0.95
2023-05-02T12:32:30.908Z,1.23
2023-05-02T12:34:57.751Z,1.05
2023-05-02T12:37:25.142Z,1.25
2023-05-02T12:39:52.799Z,0.85
2023-05-02T12:42:20.548Z,0.70
2023-05-02T12:44:47.877Z,1.45
2023-05-02T12:47:15.381Z,0.50
2023-05-02T12:49:55.205Z,0.28
2023-05-02T12:52:22.659Z,0.47
2023-05-02T12:54:49.188Z,0.57
2023-05-02T12:57:25.679Z,0.95
2023-05-02T12:59:55.289Z,0.98
2023-05-02T13:02:22.739Z,1.05
2023-05-02T13:04:49.451Z,0.70
2023-05-02T13:07:15.892Z,2.03
2023-05-02T13:09:42.390Z,1.15
2023-05-02T13:12:09.622Z,0.77
2023-05-02T13:14:36.079Z,0.77
2023-05-02T13:17:02.840Z,0.65
2023-05-02T13:19:31.354Z,0.95
2023-05-02T13:21:58.035Z,1.05
2023-05-02T13:24:24.653Z,1.27
2023-05-02T13:26:51.443Z,2.05
2023-05-02T13:29:17.962Z,0.93
2023-05-02T13:31:44.587Z,1.33
2023-05-02T13:34:11.077Z,0.43
2023-05-02T13:36:44.027Z,0.65
2023-05-02T13:39:10.521Z,0.40
2023-05-02T13:41:37.344Z,0.52
2023-05-02T13:44:03.948Z,0.65
2023-05-02T13:46:36.222Z,0.52
2023-05-02T13:49:06.044Z,0.50
2023-05-02T13:51:32.830Z,0.32
2023-05-02T13:53:59.920Z,0.80
2023-05-02T13:56:26.872Z,0.30
2023-05-02T13:58:53.615Z,0.40
2023-05-02T14:01:20.134Z,0.98
2023-05-02T14:03:46.894Z,0.70
2023-05-02T14:06:13.500Z,0.40
2023-05-02T14:08:40.075Z,0.30
2023-05-02T14:11:07.372Z,0.60
2023-05-02T14:13:33.973Z,1.73
2023-05-02T14:16:00.719Z,0.60
2023-05-02T14:18:27.229Z,1.17
2023-05-02T14:20:53.779Z,0.50
2023-05-02T14:23:20.733Z,0.60
2023-05-02T14:25:47.196Z,0.82
2023-05-02T14:28:13.714Z,0.60
2023-05-02T14:30:40.771Z,0.63
2023-05-02T14:33:07.278Z,0.73
2023-05-02T14:35:33.966Z,0.70
2023-05-02T14:38:00.983Z,0.40
2023-05-02T14:40:27.627Z,0.88
2023-05-02T14:42:54.050Z,0.70
2023-05-02T14:45:20.491Z,0.55
2023-05-02T14:47:47.135Z,0.68
2023-05-02T14:50:13.621Z,0.73
2023-05-02T14:52:40.165Z,0.50
2023-05-02T14:55:06.852Z,0.57
2023-05-02T14:57:33.391Z,0.80
2023-05-02T15:00:00.057Z,1.20
2023-05-02T15:02:26.799Z,0.75
2023-05-02T15:04:53.371Z,0.73
2023-05-02T15:07:20.035Z,0.68
2023-05-02T15:09:46.588Z,0.80
2023-05-02T15:12:13.031Z,0.82
2023-05-02T15:14:39.543Z,0.60
2023-05-02T15:17:06.054Z,0.90
2023-05-02T15:19:32.580Z,0.70
2023-05-02T15:21:59.122Z,0.80
2023-05-02T15:24:25.929Z,0.50
2023-05-02T15:26:52.687Z,0.70
2023-05-02T15:29:19.139Z,0.50
2023-05-02T15:31:45.708Z,1.35
2023-05-02T15:34:12.380Z,0.50
2023-05-02T15:36:39.016Z,0.82
2023-05-02T15:39:05.546Z,1.48
2023-05-02T15:41:32.657Z,1.42
2023-05-02T15:43:59.506Z,1.10
2023-05-02T15:46:26.100Z,0.80
2023-05-02T15:48:52.648Z,0.60
2023-05-02T15:51:19.148Z,0.90
2023-05-02T15:53:49.848Z,0.80
2023-05-02T15:56:16.894Z,0.85
2023-05-02T15:58:48.264Z,1.10
2023-05-02T16:01:14.910Z,0.57
2023-05-02T16:03:42.028Z,1.25
2023-05-02T16:06:08.726Z,0.63
2023-05-02T16:08:35.288Z,0.47
2023-05-02T16:11:01.900Z,1.17
2023-05-02T16:13:28.435Z,0.65
2023-05-02T16:15:56.181Z,1.25
2023-05-02T16:18:27.974Z,1.42
2023-05-02T16:20:57.565Z,0.90
2023-05-02T16:23:25.649Z,0.95
2023-05-02T16:25:59.085Z,0.90
2023-05-02T16:28:25.629Z,0.47
2023-05-02T16:30:52.421Z,0.95
2023-05-02T16:33:19.141Z,0.50
2023-05-02T16:35:45.870Z,1.10
2023-05-02T16:38:12.532Z,1.58
2023-05-02T16:40:39.777Z,0.63
2023-05-02T16:43:06.394Z,0.68
2023-05-02T16:45:33.371Z,0.50
2023-05-02T16:48:00.790Z,1.25
2023-05-02T16:50:27.289Z,1.38
2023-05-02T16:52:53.743Z,1.17
2023-05-02T16:55:20.306Z,0.80
2023-05-02T16:57:46.863Z,0.50
2023-05-02T17:00:14.811Z,0.70
2023-05-02T17:02:41.441Z,0.90
2023-05-02T17:05:08.309Z,1.20
2023-05-02T17:07:34.776Z,0.57
2023-05-02T17:10:01.727Z,0.75
2023-05-02T17:12:28.506Z,0.57
2023-05-02T17:14:54.984Z,1.10
2023-05-02T17:17:23.381Z,0.70
2023-05-02T17:19:50.721Z,0.47
2023-05-02T17:22:18.856Z,0.30
2023-05-02T17:24:48.404Z,0.65
2023-05-02T17:27:15.122Z,1.65
2023-05-02T17:29:42.125Z,0.50
2023-05-02T17:32:08.962Z,0.50
2023-05-02T17:34:36.818Z,0.45
2023-05-02T17:37:03.612Z,0.50
2023-05-02T17:39:30.186Z,0.70
2023-05-02T17:41:59.106Z,0.40
2023-05-02T17:44:26.032Z,0.80
2023-05-02T17:46:53.444Z,0.77
2023-05-02T17:49:20.054Z,0.32
2023-05-02T17:51:46.749Z,0.98
2023-05-02T17:54:13.360Z,0.55
2023-05-02T17:56:39.993Z,0.60
2023-05-02T17:59:06.740Z,1.10
2023-05-02T18:01:33.603Z,1.15
2023-05-02T18:04:00.327Z,0.45
2023-05-02T18:06:28.312Z,0.82
2023-05-02T18:08:55.042Z,0.80
2023-05-02T18:11:23.604Z,0.68
2023-05-02T18:13:51.421Z,0.47
2023-05-02T18:16:18.381Z,0.88
2023-05-02T18:18:45.568Z,0.52
2023-05-02T18:21:12.321Z,0.52
2023-05-02T18:23:40.233Z,0.90
2023-05-02T18:26:11.415Z,1.13
2023-05-02T18:28:37.930Z,0.40
2023-05-02T18:31:04.566Z,0.43
2023-05-02T18:33:31.441Z,0.30
2023-05-02T18:35:58.041Z,1.88
2023-05-02T18:38:24.654Z,0.50
2023-05-02T18:40:51.360Z,0.60
2023-05-02T18:43:18.190Z,0.82
2023-05-02T18:45:44.946Z,0.88
2023-05-02T18:48:11.786Z,1.00
2023-05-02T18:50:38.263Z,0.63
2023-05-02T18:53:04.791Z,0.60
2023-05-02T18:55:34.291Z,0.43
2023-05-02T18:58:00.875Z,1.13
2023-05-02T19:00:30.181Z,0.63
2023-05-02T19:02:56.940Z,1.60
2023-05-02T19:05:24.359Z,1.17
2023-05-02T19:07:51.136Z,0.40
2023-05-02T19:10:17.666Z,0.45
2023-05-02T19:12:45.821Z,0.77
2023-05-02T19:15:12.358Z,0.55
2023-05-02T19:17:39.087Z,0.35
2023-05-02T19:20:06.185Z,0.88
2023-05-02T19:22:34.518Z,0.50
2023-05-02T19:25:01.442Z,1.17
2023-05-02T19:27:29.269Z,0.40
2023-05-02T19:29:58.228Z,0.63
2023-05-02T19:32:25.347Z,1.05
2023-05-02T19:34:51.943Z,0.60
2023-05-02T19:37:18.825Z,1.75
2023-05-02T19:39:45.425Z,1.83
2023-05-02T19:42:11.897Z,1.00
2023-05-02T19:44:38.393Z,0.60
2023-05-02T19:47:04.894Z,0.55
2023-05-02T19:49:31.802Z,0.55
2023-05-02T19:51:58.221Z,0.63
2023-05-02T19:54:25.128Z,0.68
2023-05-02T19:56:51.652Z,0.68
2023-05-02T19:59:18.320Z,0.65
2023-05-02T20:01:46.727Z,0.63
2023-05-02T20:04:14.459Z,0.85
2023-05-02T20:06:41.358Z,0.90
2023-05-02T20:09:07.998Z,0.75
2023-05-02T20:11:34.503Z,0.47
2023-05-02T20:14:01.265Z,0.80
2023-05-02T20:16:28.753Z,2.53
2023-05-02T20:18:55.937Z,0.50
2023-05-02T20:21:22.582Z,0.50
2023-05-02T20:23:49.388Z,0.90
2023-05-02T20:26:17.871Z,0.55
2023-05-02T20:28:44.424Z,0.98
2023-05-02T20:31:10.976Z,0.60
2023-05-02T20:33:45.291Z,0.93
2023-05-02T20:36:14.220Z,0.40
2023-05-02T20:38:42.541Z,0.60
2023-05-02T20:41:13.161Z,1.25
2023-05-02T20:43:40.308Z,0.40
2023-05-02T20:46:11.647Z,0.55
2023-05-02T20:48:38.201Z,0.80
2023-05-02T20:51:04.754Z,0.80
2023-05-02T20:53:31.198Z,0.68
2023-05-02T20:55:57.665Z,0.85
2023-05-02T20:58:24.125Z,0.70
2023-05-02T21:00:52.634Z,0.70
2023-05-02T21:03:22.272Z,0.60
2023-05-02T21:05:52.968Z,0.60
2023-05-02T21:08:19.634Z,0.98
2023-05-02T21:10:46.144Z,1.00
2023-05-02T21:13:12.750Z,0.95
2023-05-02T21:15:39.728Z,0.63
2023-05-02T21:18:07.120Z,0.88
2023-05-02T21:20:34.209Z,1.17
2023-05-02T21:23:00.835Z,0.82
2023-05-02T21:25:27.274Z,1.23
2023-05-02T21:27:53.881Z,1.30
2023-05-02T21:30:20.457Z,0.50
2023-05-02T21:32:46.968Z,0.88
2023-05-02T21:35:13.478Z,0.65
2023-05-02T21:37:40.076Z,1.15
2023-05-02T21:40:07.336Z,0.88
2023-05-02T21:42:33.918Z,0.77
2023-05-02T21:45:01.316Z,0.88
2023-05-02T21:47:27.775Z,0.70
2023-05-02T21:49:55.387Z,0.60
2023-05-02T21:52:21.847Z,0.60
2023-05-02T21:54:51.546Z,0.70
2023-05-02T21:57:18.964Z,1.00
2023-05-02T21:59:45.584Z,0.77
2023-05-02T22:02:12.162Z,0.57
2023-05-02T22:04:38.582Z,0.70
2023-05-02T22:07:05.048Z,1.10
2023-05-02T22:09:33.422Z,1.15
2023-05-02T22:12:00.213Z,1.10
2023-05-02T22:14:33.868Z,0.55
2023-05-02T22:17:10.504Z,0.43
2023-05-02T22:19:37.553Z,0.80
2023-05-02T22:22:05.310Z,0.40
2023-05-02T22:24:31.806Z,0.73
2023-05-02T22:26:58.282Z,0.77
2023-05-02T22:29:24.701Z,0.98
2023-05-02T22:31:52.198Z,1.33
2023-05-02T22:34:19.059Z,0.75
2023-05-02T22:36:45.998Z,0.70
2023-05-02T22:39:12.824Z,0.50
2023-05-02T22:41:39.264Z,0.50
2023-05-02T22:44:05.688Z,1.33
2023-05-02T22:46:32.178Z,0.40
2023-05-02T22:48:58.763Z,0.60
2023-05-02T22:51:25.669Z,0.83
2023-05-02T22:53:54.038Z,0.80
2023-05-02T22:56:20.744Z,0.77
2023-05-02T22:58:49.764Z,0.47
2023-05-02T23:01:16.435Z,0.70
2023-05-02T23:03:43.282Z,0.87
2023-05-02T23:06:09.932Z,1.00
2023-05-02T23:08:36.417Z,0.40
2023-05-02T23:11:03.043Z,0.70
2023-05-02T23:13:29.504Z,0.57
2023-05-02T23:15:55.987Z,0.80
2023-05-02T23:18:22.953Z,0.70
2023-05-02T23:20:49.458Z,0.40
2023-05-02T23:23:16.115Z,0.90
2023-05-02T23:25:42.574Z,0.43
2023-05-02T23:28:09.013Z,0.83
2023-05-02T23:30:37.756Z,1.37
2023-05-02T23:33:04.274Z,0.60
2023-05-02T23:35:31.210Z,1.13
2023-05-02T23:37:59.113Z,0.80
2023-05-02T23:40:26.900Z,0.70
2023-05-02T23:42:53.778Z,0.73
2023-05-02T23:45:21.290Z,0.87
2023-05-02T23:47:48.359Z,0.90
2023-05-02T23:50:14.975Z,0.60
2023-05-02T23:52:41.401Z,0.87
2023-05-02T23:55:10.500Z,0.60
2023-05-02T23:57:37.471Z,0.93
